sensor_id;sensor_type;location;lat;lon;timestamp;pressure;altitude;pressure_sealevel;temperature;humidity
49194;BME280;35029;50.804;12.866;2022-12-10T00:01:52;96606.06;;;0.68;100.00
49194;BME280;35029;50.804;12.866;2022-12-10T00:04:18;96609.34;;;0.70;100.00
49194;BME280;35029;50.804;12.866;2022-12-10T00:06:46;96604.28;;;0.69;100.00
49194;BME280;35029;50.804;12.866;2022-12-10T00:09:15;96622.03;;;0.65;100.00
49194;BME280;35029;50.804;12.866;2022-12-10T00:11:41;96620.38;;;0.64;100.00
49194;BME280;35029;50.804;12.866;2022-12-10T00:14:22;96615.19;;;0.64;100.00
49194;BME280;35029;50.804;12.866;2022-12-10T00:16:48;96622.03;;;0.65;100.00
49194;BME280;35029;50.804;12.866;2022-12-10T00:19:16;96625.31;;;0.67;100.00
49194;BME280;35029;50.804;12.866;2022-12-10T00:21:43;96613.06;;;0.67;100.00
49194;BME280;35029;50.804;12.866;2022-12-10T00:24:10;96622.53;;;0.69;100.00
49194;BME280;35029;50.804;12.866;2022-12-10T00:26:38;96621.69;;;0.68;100.00
49194;BME280;35029;50.804;12.866;2022-12-10T00:29:05;96621.06;;;0.66;100.00
49194;BME280;35029;50.804;12.866;2022-12-10T00:31:35;96622.84;;;0.65;100.00
49194;BME280;35029;50.804;12.866;2022-12-10T00:34:03;96612.72;;;0.62;100.00
49194;BME280;35029;50.804;12.866;2022-12-10T00:36:35;96619.41;;;0.57;100.00
49194;BME280;35029;50.804;12.866;2022-12-10T00:39:01;96621.06;;;0.58;100.00
49194;BME280;35029;50.804;12.866;2022-12-10T00:41:28;96602.28;;;0.46;100.00
49194;BME280;35029;50.804;12.866;2022-12-10T00:43:54;96611.25;;;0.60;100.00
49194;BME280;35029;50.804;12.866;2022-12-10T00:46:20;96619.91;;;0.60;100.00
49194;BME280;35029;50.804;12.866;2022-12-10T00:48:46;96618.91;;;0.61;100.00
49194;BME280;35029;50.804;12.866;2022-12-10T00:51:19;96618.78;;;0.63;100.00
49194;BME280;35029;50.804;12.866;2022-12-10T00:53:46;96617.31;;;0.60;100.00
49194;BME280;35029;50.804;12.866;2022-12-10T00:56:14;96624.97;;;0.62;100.00
49194;BME280;35029;50.804;12.866;2022-12-10T00:58:41;96627.75;;;0.60;100.00
49194;BME280;35029;50.804;12.866;2022-12-10T01:01:16;96623.31;;;0.61;100.00
49194;BME280;35029;50.804;12.866;2022-12-10T01:03:45;96625.94;;;0.61;100.00
49194;BME280;35029;50.804;12.866;2022-12-10T01:08:46;96633.59;;;0.62;100.00
49194;BME280;35029;50.804;12.866;2022-12-10T01:11:14;96629.06;;;0.64;100.00
49194;BME280;35029;50.804;12.866;2022-12-10T01:13:41;96629.50;;;0.52;100.00
49194;BME280;35029;50.804;12.866;2022-12-10T01:16:10;96625.44;;;0.57;100.00
49194;BME280;35029;50.804;12.866;2022-12-10T01:18:36;96628.88;;;0.58;100.00
49194;BME280;35029;50.804;12.866;2022-12-10T01:21:04;96633.41;;;0.56;100.00
49194;BME280;35029;50.804;12.866;2022-12-10T01:23:36;96631.81;;;0.55;100.00
49194;BME280;35029;50.804;12.866;2022-12-10T01:26:04;96627.22;;;0.48;100.00
49194;BME280;35029;50.804;12.866;2022-12-10T01:28:31;96631.81;;;0.55;100.00
49194;BME280;35029;50.804;12.866;2022-12-10T01:31:11;96641.56;;;0.53;100.00
49194;BME280;35029;50.804;12.866;2022-12-10T01:33:37;96644.19;;;0.53;100.00
49194;BME280;35029;50.804;12.866;2022-12-10T01:36:11;96629.81;;;0.48;100.00
49194;BME280;35029;50.804;12.866;2022-12-10T01:38:37;96639.44;;;0.48;100.00
49194;BME280;35029;50.804;12.866;2022-12-10T01:41:05;96636.00;;;0.47;100.00
49194;BME280;35029;50.804;12.866;2022-12-10T01:46:20;96633.88;;;0.43;100.00
49194;BME280;35029;50.804;12.866;2022-12-10T01:48:46;96638.25;;;0.42;100.00
49194;BME280;35029;50.804;12.866;2022-12-10T01:51:12;96647.09;;;0.41;100.00
49194;BME280;35029;50.804;12.866;2022-12-10T01:53:38;96632.25;;;0.42;100.00
49194;BME280;35029;50.804;12.866;2022-12-10T01:56:04;96644.47;;;0.41;100.00
49194;BME280;35029;50.804;12.866;2022-12-10T01:58:32;96633.34;;;0.31;100.00
49194;BME280;35029;50.804;12.866;2022-12-10T02:03:44;96649.69;;;0.41;100.00
49194;BME280;35029;50.804;12.866;2022-12-10T02:06:28;96643.34;;;0.44;100.00
49194;BME280;35029;50.804;12.866;2022-12-10T02:15:03;96646.28;;;0.49;100.00
49194;BME280;35029;50.804;12.866;2022-12-10T02:17:51;96641.53;;;0.44;100.00
49194;BME280;35029;50.804;12.866;2022-12-10T02:22:59;96638.59;;;0.47;100.00
49194;BME280;35029;50.804;12.866;2022-12-10T02:25:34;96645.78;;;0.45;100.00
49194;BME280;35029;50.804;12.866;2022-12-10T02:28:19;96641.22;;;0.47;100.00
49194;BME280;35029;50.804;12.866;2022-12-10T02:30:48;96628.16;;;0.39;100.00
49194;BME280;35029;50.804;12.866;2022-12-10T02:33:17;96640.94;;;0.50;100.00
49194;BME280;35029;50.804;12.866;2022-12-10T02:35:47;96642.84;;;0.40;100.00
49194;BME280;35029;50.804;12.866;2022-12-10T02:38:23;96642.03;;;0.40;100.00
49194;BME280;35029;50.804;12.866;2022-12-10T02:40:55;96652.28;;;0.41;100.00
49194;BME280;35029;50.804;12.866;2022-12-10T02:43:24;96633.16;;;0.24;100.00
49194;BME280;35029;50.804;12.866;2022-12-10T02:45:55;96644.28;;;0.35;100.00
49194;BME280;35029;50.804;12.866;2022-12-10T02:48:22;96650.78;;;0.30;100.00
49194;BME280;35029;50.804;12.866;2022-12-10T02:50:50;96644.75;;;0.30;100.00
49194;BME280;35029;50.804;12.866;2022-12-10T02:53:17;96644.75;;;0.30;100.00
49194;BME280;35029;50.804;12.866;2022-12-10T02:59:01;96644.63;;;0.31;100.00
49194;BME280;35029;50.804;12.866;2022-12-10T03:04:47;96660.38;;;0.30;100.00
49194;BME280;35029;50.804;12.866;2022-12-10T03:07:26;96655.34;;;0.28;100.00
49194;BME280;35029;50.804;12.866;2022-12-10T03:09:56;96648.44;;;0.19;100.00
49194;BME280;35029;50.804;12.866;2022-12-10T03:12:31;96662.19;;;0.29;100.00
49194;BME280;35029;50.804;12.866;2022-12-10T03:15:00;96654.22;;;0.31;100.00
49194;BME280;35029;50.804;12.866;2022-12-10T03:17:30;96659.25;;;0.32;100.00
49194;BME280;35029;50.804;12.866;2022-12-10T03:19:58;96655.03;;;0.31;100.00
49194;BME280;35029;50.804;12.866;2022-12-10T03:22:26;96654.88;;;0.33;100.00
49194;BME280;35029;50.804;12.866;2022-12-10T03:24:53;96659.09;;;0.34;100.00
49194;BME280;35029;50.804;12.866;2022-12-10T03:27:21;96658.13;;;0.35;100.00
49194;BME280;35029;50.804;12.866;2022-12-10T03:29:51;96656.50;;;0.34;100.00
49194;BME280;35029;50.804;12.866;2022-12-10T03:32:20;96644.63;;;0.31;100.00
49194;BME280;35029;50.804;12.866;2022-12-10T03:34:48;96651.28;;;0.34;100.00
49194;BME280;35029;50.804;12.866;2022-12-10T03:37:14;96638.53;;;0.23;100.00
49194;BME280;35029;50.804;12.866;2022-12-10T03:39:42;96642.47;;;0.27;100.00
49194;BME280;35029;50.804;12.866;2022-12-10T03:42:09;96640.38;;;0.30;100.00
49194;BME280;35029;50.804;12.866;2022-12-10T03:44:37;96640.81;;;0.26;100.00
49194;BME280;35029;50.804;12.866;2022-12-10T03:47:05;96644.44;;;0.25;100.00
49194;BME280;35029;50.804;12.866;2022-12-10T03:49:31;96648.97;;;0.23;100.00
49194;BME280;35029;50.804;12.866;2022-12-10T03:51:57;96620.22;;;0.06;100.00
49194;BME280;35029;50.804;12.866;2022-12-10T03:54:23;96632.50;;;0.14;100.00
49194;BME280;35029;50.804;12.866;2022-12-10T03:56:49;96643.19;;;0.11;100.00
49194;BME280;35029;50.804;12.866;2022-12-10T03:59:15;96648.75;;;0.08;100.00
49194;BME280;35029;50.804;12.866;2022-12-10T04:01:42;96640.47;;;0.12;100.00
49194;BME280;35029;50.804;12.866;2022-12-10T04:04:09;96644.53;;;0.15;100.00
49194;BME280;35029;50.804;12.866;2022-12-10T04:06:37;96646.16;;;0.16;100.00
49194;BME280;35029;50.804;12.866;2022-12-10T04:09:03;96643.38;;;0.09;100.00
49194;BME280;35029;50.804;12.866;2022-12-10T04:11:29;96653.53;;;0.21;100.00
49194;BME280;35029;50.804;12.866;2022-12-10T04:13:54;96652.41;;;0.23;100.00
49194;BME280;35029;50.804;12.866;2022-12-10T04:16:39;96649.72;;;0.15;100.00
49194;BME280;35029;50.804;12.866;2022-12-10T04:19:12;96655.78;;;0.15;100.00
49194;BME280;35029;50.804;12.866;2022-12-10T04:21:41;96657.06;;;0.11;100.00
49194;BME280;35029;50.804;12.866;2022-12-10T04:24:29;96639.44;;;0.05;100.00
49194;BME280;35029;50.804;12.866;2022-12-10T04:29:45;96647.13;;;0.15;100.00
49194;BME280;35029;50.804;12.866;2022-12-10T04:32:11;96655.31;;;0.20;100.00
49194;BME280;35029;50.804;12.866;2022-12-10T04:34:36;96651.06;;;0.19;100.00
49194;BME280;35029;50.804;12.866;2022-12-10T04:37:03;96643.06;;;0.12;100.00
49194;BME280;35029;50.804;12.866;2022-12-10T04:39:29;96650.22;;;0.10;100.00
49194;BME280;35029;50.804;12.866;2022-12-10T04:41:56;96644.19;;;0.10;100.00
49194;BME280;35029;50.804;12.866;2022-12-10T04:44:24;96652.63;;;0.04;100.00
49194;BME280;35029;50.804;12.866;2022-12-10T04:46:49;96649.53;;;0.00;100.00
49194;BME280;35029;50.804;12.866;2022-12-10T04:49:16;96633.84;;;-0.08;100.00
49194;BME280;35029;50.804;12.866;2022-12-10T04:51:43;96647.25;;;0.05;100.00
49194;BME280;35029;50.804;12.866;2022-12-10T04:54:09;96647.25;;;0.05;100.00
49194;BME280;35029;50.804;12.866;2022-12-10T04:56:36;96636.78;;;-0.03;100.00
49194;BME280;35029;50.804;12.866;2022-12-10T04:59:04;96638.28;;;-0.01;100.00
49194;BME280;35029;50.804;12.866;2022-12-10T05:01:30;96645.78;;;0.03;100.00
49194;BME280;35029;50.804;12.866;2022-12-10T05:04:00;96646.09;;;-0.01;100.00
49194;BME280;35029;50.804;12.866;2022-12-10T05:06:26;96645.28;;;-0.01;100.00
49194;BME280;35029;50.804;12.866;2022-12-10T05:08:52;96645.75;;;-0.06;100.00
49194;BME280;35029;50.804;12.866;2022-12-10T05:11:20;96640.69;;;-0.07;100.00
49194;BME280;35029;50.804;12.866;2022-12-10T05:13:46;96637.56;;;-0.19;100.00
49194;BME280;35029;50.804;12.866;2022-12-10T05:16:15;96642.59;;;-0.18;100.00
49194;BME280;35029;50.804;12.866;2022-12-10T05:18:41;96642.28;;;-0.14;100.00
49194;BME280;35029;50.804;12.866;2022-12-10T05:21:10;96642.13;;;-0.13;100.00
49194;BME280;35029;50.804;12.866;2022-12-10T05:23:39;96637.25;;;-0.16;100.00
49194;BME280;35029;50.804;12.866;2022-12-10T05:28:38;96643.44;;;-0.09;100.00
49194;BME280;35029;50.804;12.866;2022-12-10T05:31:05;96647.19;;;-0.11;100.00
49194;BME280;35029;50.804;12.866;2022-12-10T05:33:31;96647.19;;;-0.11;100.00
49194;BME280;35029;50.804;12.866;2022-12-10T05:36:03;96641.16;;;-0.12;100.00
49194;BME280;35029;50.804;12.866;2022-12-10T05:38:30;96645.25;;;-0.09;100.00
49194;BME280;35029;50.804;12.866;2022-12-10T05:41:03;96652.91;;;-0.08;100.00
49194;BME280;35029;50.804;12.866;2022-12-10T05:43:30;96632.47;;;-0.21;100.00
49194;BME280;35029;50.804;12.866;2022-12-10T05:46:05;96653.22;;;-0.11;100.00
49194;BME280;35029;50.804;12.866;2022-12-10T05:48:33;96655.00;;;-0.11;100.00
49194;BME280;35029;50.804;12.866;2022-12-10T05:51:08;96660.03;;;-0.10;100.00
49194;BME280;35029;50.804;12.866;2022-12-10T05:53:35;96647.66;;;-0.16;100.00
49194;BME280;35029;50.804;12.866;2022-12-10T05:56:10;96662.81;;;-0.11;100.00
49194;BME280;35029;50.804;12.866;2022-12-10T05:58:37;96665.41;;;-0.11;100.00
49194;BME280;35029;50.804;12.866;2022-12-10T06:01:07;96673.91;;;-0.09;100.00
49194;BME280;35029;50.804;12.866;2022-12-10T06:03:34;96659.19;;;-0.19;100.00
49194;BME280;35029;50.804;12.866;2022-12-10T06:05:59;96669.50;;;-0.09;100.00
49194;BME280;35029;50.804;12.866;2022-12-10T06:08:25;96665.63;;;-0.05;100.00
49194;BME280;35029;50.804;12.866;2022-12-10T06:10:51;96643.22;;;-0.24;100.00
49194;BME280;35029;50.804;12.866;2022-12-10T06:13:16;96676.97;;;-0.14;100.00
49194;BME280;35029;50.804;12.866;2022-12-10T06:15:42;96672.06;;;-0.17;100.00
49194;BME280;35029;50.804;12.866;2022-12-10T06:18:08;96669.78;;;-0.20;100.00
49194;BME280;35029;50.804;12.866;2022-12-10T06:20:37;96678.41;;;-0.20;100.00
49194;BME280;35029;50.804;12.866;2022-12-10T06:23:03;96667.13;;;-0.28;100.00
49194;BME280;35029;50.804;12.866;2022-12-10T06:25:29;96678.34;;;-0.28;100.00
49194;BME280;35029;50.804;12.866;2022-12-10T06:27:55;96681.91;;;-0.29;100.00
49194;BME280;35029;50.804;12.866;2022-12-10T06:30:21;96688.16;;;-0.22;100.00
49194;BME280;35029;50.804;12.866;2022-12-10T06:32:46;96698.88;;;-0.25;100.00
49194;BME280;35029;50.804;12.866;2022-12-10T06:35:13;96676.66;;;-0.37;100.00
49194;BME280;35029;50.804;12.866;2022-12-10T06:37:38;96702.00;;;-0.21;100.00
49194;BME280;35029;50.804;12.866;2022-12-10T06:40:06;96697.47;;;-0.19;100.00
49194;BME280;35029;50.804;12.866;2022-12-10T06:42:33;96672.97;;;-0.26;100.00
49194;BME280;35029;50.804;12.866;2022-12-10T06:44:59;96705.13;;;-0.18;100.00
49194;BME280;35029;50.804;12.866;2022-12-10T06:47:25;96687.28;;;-0.30;100.00
49194;BME280;35029;50.804;12.866;2022-12-10T06:49:51;96709.00;;;-0.22;100.00
49194;BME280;35029;50.804;12.866;2022-12-10T06:52:17;96701.84;;;-0.20;100.00
49194;BME280;35029;50.804;12.866;2022-12-10T06:54:43;96696.31;;;-0.17;100.00
49194;BME280;35029;50.804;12.866;2022-12-10T06:57:09;96710.34;;;-0.18;100.00
49194;BME280;35029;50.804;12.866;2022-12-10T06:59:34;96709.50;;;-0.18;100.00
49194;BME280;35029;50.804;12.866;2022-12-10T07:02:00;96712.25;;;-0.20;100.00
49194;BME280;35029;50.804;12.866;2022-12-10T07:04:26;96718.31;;;-0.19;100.00
49194;BME280;35029;50.804;12.866;2022-12-10T07:06:53;96719.41;;;-0.22;100.00
49194;BME280;35029;50.804;12.866;2022-12-10T07:09:21;96721.03;;;-0.21;100.00
49194;BME280;35029;50.804;12.866;2022-12-10T07:11:48;96716.81;;;-0.22;100.00
49194;BME280;35029;50.804;12.866;2022-12-10T07:14:15;96722.53;;;-0.18;100.00
49194;BME280;35029;50.804;12.866;2022-12-10T07:16:41;96723.34;;;-0.18;100.00
49194;BME280;35029;50.804;12.866;2022-12-10T07:19:10;96724.63;;;-0.22;100.00
49194;BME280;35029;50.804;12.866;2022-12-10T07:21:37;96725.44;;;-0.21;100.00
49194;BME280;35029;50.804;12.866;2022-12-10T07:24:26;96719.25;;;-0.20;100.00
49194;BME280;35029;50.804;12.866;2022-12-10T07:26:51;96716.66;;;-0.20;100.00
49194;BME280;35029;50.804;12.866;2022-12-10T07:29:20;96701.25;;;-0.31;100.00
49194;BME280;35029;50.804;12.866;2022-12-10T07:31:47;96716.50;;;-0.19;100.00
49194;BME280;35029;50.804;12.866;2022-12-10T07:34:14;96692.22;;;-0.45;100.00
49194;BME280;35029;50.804;12.866;2022-12-10T07:36:40;96724.75;;;-0.23;100.00
49194;BME280;35029;50.804;12.866;2022-12-10T07:39:09;96725.59;;;-0.23;100.00
49194;BME280;35029;50.804;12.866;2022-12-10T07:41:35;96732.44;;;-0.22;100.00
49194;BME280;35029;50.804;12.866;2022-12-10T07:44:03;96674.25;;;-0.57;100.00
49194;BME280;35029;50.804;12.866;2022-12-10T07:46:31;96733.25;;;-0.21;100.00
49194;BME280;35029;50.804;12.866;2022-12-10T07:49:00;96724.25;;;-0.27;100.00
49194;BME280;35029;50.804;12.866;2022-12-10T07:51:26;96739.41;;;-0.22;100.00
49194;BME280;35029;50.804;12.866;2022-12-10T07:53:52;96740.38;;;-0.23;100.00
49194;BME280;35029;50.804;12.866;2022-12-10T07:56:19;96730.66;;;-0.21;100.00
49194;BME280;35029;50.804;12.866;2022-12-10T07:58:47;96736.53;;;-0.19;100.00
49194;BME280;35029;50.804;12.866;2022-12-10T08:01:18;96738.47;;;-0.21;100.00
49194;BME280;35029;50.804;12.866;2022-12-10T08:03:44;96736.81;;;-0.22;100.00
49194;BME280;35029;50.804;12.866;2022-12-10T08:06:12;96742.03;;;-0.22;100.00
49194;BME280;35029;50.804;12.866;2022-12-10T08:08:39;96739.25;;;-0.21;100.00
49194;BME280;35029;50.804;12.866;2022-12-10T08:11:07;96740.59;;;-0.17;100.00
49194;BME280;35029;50.804;12.866;2022-12-10T08:13:35;96734.25;;;-0.14;100.00
49194;BME280;35029;50.804;12.866;2022-12-10T08:16:15;96740.59;;;-0.17;100.00
49194;BME280;35029;50.804;12.866;2022-12-10T08:18:42;96739.78;;;-0.17;100.00
49194;BME280;35029;50.804;12.866;2022-12-10T08:21:11;96740.31;;;-0.13;100.00
49194;BME280;35029;50.804;12.866;2022-12-10T08:23:37;96742.41;;;-0.17;100.00
49194;BME280;35029;50.804;12.866;2022-12-10T08:26:07;96740.75;;;-0.18;100.00
49194;BME280;35029;50.804;12.866;2022-12-10T08:28:33;96737.34;;;-0.19;100.00
49194;BME280;35029;50.804;12.866;2022-12-10T08:30:59;96735.69;;;-0.20;100.00
49194;BME280;35029;50.804;12.866;2022-12-10T08:33:46;96737.50;;;-0.20;100.00
49194;BME280;35029;50.804;12.866;2022-12-10T08:36:15;96740.38;;;-0.23;100.00
49194;BME280;35029;50.804;12.866;2022-12-10T08:38:42;96735.38;;;-0.17;100.00
49194;BME280;35029;50.804;12.866;2022-12-10T08:41:12;96745.75;;;-0.25;100.00
49194;BME280;35029;50.804;12.866;2022-12-10T08:43:40;96741.22;;;-0.23;100.00
49194;BME280;35029;50.804;12.866;2022-12-10T08:46:06;96746.44;;;-0.23;100.00
49194;BME280;35029;50.804;12.866;2022-12-10T08:48:32;96756.16;;;-0.25;100.00
49194;BME280;35029;50.804;12.866;2022-12-10T08:50:58;96752.59;;;-0.24;100.00
49194;BME280;35029;50.804;12.866;2022-12-10T08:53:24;96756.31;;;-0.26;100.00
49194;BME280;35029;50.804;12.866;2022-12-10T08:55:52;96760.88;;;-0.28;100.00
49194;BME280;35029;50.804;12.866;2022-12-10T08:58:18;96760.03;;;-0.29;100.00
49194;BME280;35029;50.804;12.866;2022-12-10T09:00:45;96755.50;;;-0.27;100.00
49194;BME280;35029;50.804;12.866;2022-12-10T09:03:11;96769.13;;;-0.33;100.00
49194;BME280;35029;50.804;12.866;2022-12-10T09:05:38;96778.28;;;-0.29;100.00
49194;BME280;35029;50.804;12.866;2022-12-10T09:08:05;96775.81;;;-0.30;100.00
49194;BME280;35029;50.804;12.866;2022-12-10T09:10:30;96779.31;;;-0.22;100.00
49194;BME280;35029;50.804;12.866;2022-12-10T09:12:58;96713.22;;;-0.65;100.00
49194;BME280;35029;50.804;12.866;2022-12-10T09:15:23;96776.56;;;-0.20;100.00
49194;BME280;35029;50.804;12.866;2022-12-10T09:17:50;96764.28;;;-0.28;100.00
49194;BME280;35029;50.804;12.866;2022-12-10T09:20:16;96772.47;;;-0.23;100.00
49194;BME280;35029;50.804;12.866;2022-12-10T09:22:43;96772.84;;;-0.18;100.00
49194;BME280;35029;50.804;12.866;2022-12-10T09:25:08;96773.00;;;-0.19;100.00
49194;BME280;35029;50.804;12.866;2022-12-10T09:27:41;96771.19;;;-0.19;100.00
49194;BME280;35029;50.804;12.866;2022-12-10T09:30:08;96767.63;;;-0.18;100.00
49194;BME280;35029;50.804;12.866;2022-12-10T09:32:33;96777.00;;;-0.25;100.00
49194;BME280;35029;50.804;12.866;2022-12-10T09:34:59;96757.00;;;-0.24;100.00
49194;BME280;35029;50.804;12.866;2022-12-10T09:37:25;96769.41;;;-0.18;100.00
49194;BME280;35029;50.804;12.866;2022-12-10T09:39:51;96779.31;;;-0.22;100.00
49194;BME280;35029;50.804;12.866;2022-12-10T09:42:47;96774.63;;;-0.18;100.00
49194;BME280;35029;50.804;12.866;2022-12-10T09:45:34;96774.13;;;-0.22;100.00
49194;BME280;35029;50.804;12.866;2022-12-10T09:53:17;96768.59;;;-0.19;100.00
49194;BME280;35029;50.804;12.866;2022-12-10T09:55:48;96763.31;;;-0.27;100.00
49194;BME280;35029;50.804;12.866;2022-12-10T09:58:18;96760.09;;;-0.21;100.00
49194;BME280;35029;50.804;12.866;2022-12-10T10:01:00;96712.50;;;-0.57;100.00
49194;BME280;35029;50.804;12.866;2022-12-10T10:03:28;96760.09;;;-0.21;100.00
49194;BME280;35029;50.804;12.866;2022-12-10T10:05:56;96762.28;;;-0.16;100.00
49194;BME280;35029;50.804;12.866;2022-12-10T10:08:33;96763.59;;;-0.12;100.00
49194;BME280;35029;50.804;12.866;2022-12-10T10:11:00;96739.22;;;-0.29;100.00
49194;BME280;35029;50.804;12.866;2022-12-10T10:13:39;96760.84;;;-0.10;100.00
49194;BME280;35029;50.804;12.866;2022-12-10T10:16:33;96756.44;;;-0.10;100.00
49194;BME280;35029;50.804;12.866;2022-12-10T10:19:13;96763.44;;;-0.10;100.00
49194;BME280;35029;50.804;12.866;2022-12-10T10:21:46;96751.16;;;0.00;100.00
49194;BME280;35029;50.804;12.866;2022-12-10T10:24:16;96759.81;;;0.09;100.00
49194;BME280;35029;50.804;12.866;2022-12-10T10:26:45;96763.97;;;0.20;100.00
49194;BME280;35029;50.804;12.866;2022-12-10T10:29:14;96756.19;;;0.28;100.00
49194;BME280;35029;50.804;12.866;2022-12-10T10:31:42;96757.50;;;0.32;100.00
49194;BME280;35029;50.804;12.866;2022-12-10T10:34:22;96764.09;;;0.44;100.00
49194;BME280;35029;50.804;12.866;2022-12-10T10:36:57;96761.13;;;0.39;100.00
49194;BME280;35029;50.804;12.866;2022-12-10T10:39:31;96757.91;;;0.45;100.00
49194;BME280;35029;50.804;12.866;2022-12-10T10:41:59;96756.59;;;0.41;100.00
49194;BME280;35029;50.804;12.866;2022-12-10T10:44:34;96752.66;;;0.37;100.00
49194;BME280;35029;50.804;12.866;2022-12-10T10:47:32;96756.84;;;0.30;100.00
49194;BME280;35029;50.804;12.866;2022-12-10T10:50:00;96741.44;;;0.10;100.00
49194;BME280;35029;50.804;12.866;2022-12-10T10:52:45;96753.69;;;0.18;100.00
49194;BME280;35029;50.804;12.866;2022-12-10T10:55:30;96753.53;;;0.20;100.00
49194;BME280;35029;50.804;12.866;2022-12-10T10:58:01;96755.31;;;0.19;100.00
49194;BME280;35029;50.804;12.866;2022-12-10T11:00:29;96746.84;;;0.17;100.00
49194;BME280;35029;50.804;12.866;2022-12-10T11:02:57;96755.41;;;0.09;100.00
49194;BME280;35029;50.804;12.866;2022-12-10T11:05:25;96762.63;;;0.15;100.00
49194;BME280;35029;50.804;12.866;2022-12-10T11:08:01;96766.88;;;0.16;100.00
49194;BME280;35029;50.804;12.866;2022-12-10T11:10:29;96754.66;;;0.17;100.00
49194;BME280;35029;50.804;12.866;2022-12-10T11:15:40;96764.41;;;0.15;100.00
49194;BME280;35029;50.804;12.866;2022-12-10T11:23:36;96764.81;;;0.02;100.00
49194;BME280;35029;50.804;12.866;2022-12-10T11:31:44;96771.16;;;-0.01;100.00
49194;BME280;35029;50.804;12.866;2022-12-10T11:38:24;96772.59;;;-0.06;100.00
49194;BME280;35029;50.804;12.866;2022-12-10T11:46:44;96766.47;;;0.03;100.00
49194;BME280;35029;50.804;12.866;2022-12-10T11:49:38;96763.88;;;0.03;100.00
49194;BME280;35029;50.804;12.866;2022-12-10T12:07:02;96773.88;;;-0.10;100.00
49194;BME280;35029;50.804;12.866;2022-12-10T12:15:23;96766.75;;;-0.26;100.00
49194;BME280;35029;50.804;12.866;2022-12-10T12:21:04;96768.00;;;-0.30;100.00
49194;BME280;35029;50.804;12.866;2022-12-10T12:26:39;96767.50;;;-0.34;100.00
49194;BME280;35029;50.804;12.866;2022-12-10T12:34:54;96777.00;;;-0.25;100.00
49194;BME280;35029;50.804;12.866;2022-12-10T12:37:58;96781.56;;;-0.27;100.00
49194;BME280;35029;50.804;12.866;2022-12-10T12:40:53;96780.72;;;-0.27;100.00
49194;BME280;35029;50.804;12.866;2022-12-10T12:43:37;96788.41;;;-0.26;100.00
49194;BME280;35029;50.804;12.866;2022-12-10T12:46:14;96777.84;;;-0.24;100.00
49194;BME280;35029;50.804;12.866;2022-12-10T12:48:49;96763.25;;;-0.35;100.00
49194;BME280;35029;50.804;12.866;2022-12-10T12:51:39;96781.50;;;-0.35;100.00
49194;BME280;35029;50.804;12.866;2022-12-10T12:54:11;96768.56;;;-0.45;100.00
49194;BME280;35029;50.804;12.866;2022-12-10T12:57:13;96778.13;;;-0.45;100.00
49194;BME280;35029;50.804;12.866;2022-12-10T12:59:44;96784.69;;;-0.41;100.00
49194;BME280;35029;50.804;12.866;2022-12-10T13:04:55;96784.19;;;-0.45;100.00
49194;BME280;35029;50.804;12.866;2022-12-10T13:09:49;96801.06;;;-0.49;100.00
49194;BME280;35029;50.804;12.866;2022-12-10T13:12:30;96798.31;;;-0.47;100.00
49194;BME280;35029;50.804;12.866;2022-12-10T13:20:24;96803.16;;;-0.53;100.00
49194;BME280;35029;50.804;12.866;2022-12-10T13:31:19;96802.03;;;-0.50;100.00
49194;BME280;35029;50.804;12.866;2022-12-10T13:41:40;96807.81;;;-0.56;100.00
49194;BME280;35029;50.804;12.866;2022-12-10T13:44:39;96814.81;;;-0.57;100.00
49194;BME280;35029;50.804;12.866;2022-12-10T13:50:00;96796.94;;;-0.70;100.00
49194;BME280;35029;50.804;12.866;2022-12-10T14:00:48;96824.69;;;-0.60;100.00
49194;BME280;35029;50.804;12.866;2022-12-10T14:08:40;96836.13;;;-0.71;100.00
49194;BME280;35029;50.804;12.866;2022-12-10T14:11:14;96833.38;;;-0.70;100.00
49194;BME280;35029;50.804;12.866;2022-12-10T14:13:47;96827.91;;;-0.66;100.00
49194;BME280;35029;50.804;12.866;2022-12-10T14:16:14;96826.03;;;-0.74;100.00
49194;BME280;35029;50.804;12.866;2022-12-10T14:18:52;96825.88;;;-0.73;100.00
49194;BME280;35029;50.804;12.866;2022-12-10T14:21:21;96819.63;;;-0.80;100.00
49194;BME280;35029;50.804;12.866;2022-12-10T14:23:50;96803.41;;;-0.92;100.00
49194;BME280;35029;50.804;12.866;2022-12-10T14:26:36;96822.94;;;-0.88;100.00
49194;BME280;35029;50.804;12.866;2022-12-10T14:29:32;96830.81;;;-0.97;100.00
49194;BME280;35029;50.804;12.866;2022-12-10T14:32:29;96835.72;;;-0.94;100.00
49194;BME280;35029;50.804;12.866;2022-12-10T14:34:57;96838.91;;;-1.00;100.00
49194;BME280;35029;50.804;12.866;2022-12-10T14:37:26;96846.44;;;-0.97;100.00
49194;BME280;35029;50.804;12.866;2022-12-10T14:39:54;96846.47;;;-1.07;100.00
49194;BME280;35029;50.804;12.866;2022-12-10T14:42:20;96844.69;;;-1.07;100.00
49194;BME280;35029;50.804;12.866;2022-12-10T14:44:51;96855.13;;;-0.89;100.00
49194;BME280;35029;50.804;12.866;2022-12-10T14:47:20;96847.09;;;-0.68;100.00
49194;BME280;35029;50.804;12.866;2022-12-10T14:49:48;96865.47;;;-0.69;100.00
49194;BME280;35029;50.804;12.866;2022-12-10T14:52:19;96856.44;;;-0.75;100.00
49194;BME280;35029;50.804;12.866;2022-12-10T14:54:46;96864.41;;;-0.76;100.00
49194;BME280;35029;50.804;12.866;2022-12-10T14:57:24;96870.13;;;-0.73;100.00
49194;BME280;35029;50.804;12.866;2022-12-10T15:02:36;96868.53;;;-0.83;100.00
49194;BME280;35029;50.804;12.866;2022-12-10T15:05:04;96871.03;;;-0.92;100.00
49194;BME280;35029;50.804;12.866;2022-12-10T15:07:41;96873.09;;;-0.86;100.00
49194;BME280;35029;50.804;12.866;2022-12-10T15:10:16;96872.38;;;-0.88;100.00
49194;BME280;35029;50.804;12.866;2022-12-10T15:12:47;96872.16;;;-0.94;100.00
49194;BME280;35029;50.804;12.866;2022-12-10T15:18:10;96880.69;;;-1.02;100.00
49194;BME280;35029;50.804;12.866;2022-12-10T15:33:52;96891.34;;;-1.05;100.00